Time;durP1;ratioP1;P1;durP2;ratioP2;P2;SDS_P1;SDS_P2;PMS_P1;PMS_P2;Temp;Humidity;BMP_temperature;BMP_pressure;BME280_temperature;BME280_humidity;BME280_pressure;Samples;Min_cycle;Max_cycle;Signal;HPM_P1;HPM_P2
2021/01/25 00:00:00;;;;;;;15.53;10.30;;;;;;;4.01;82.96;98408.30;2911177;81;21095;-65
2021/01/25 00:04:04;;;;;;;14.90;11.83;;;;;;;3.86;83.37;98412.56;2910944;81;21272;-66
2021/01/25 00:08:07;;;;;;;17.20;12.47;;;;;;;3.85;83.80;98409.58;2883345;81;21324;-66
2021/01/25 00:12:11;;;;;;;12.88;10.25;;;;;;;3.85;84.05;98412.71;2861325;82;21125;-66
2021/01/25 00:16:14;;;;;;;14.75;10.32;;;;;;;3.88;83.99;98415.08;2861445;82;21145;-65
2021/01/25 00:20:17;;;;;;;10.80;7.65;;;;;;;3.88;83.93;98422.13;2861187;82;21150;-66
2021/01/25 00:24:22;;;;;;;12.58;6.78;;;;;;;3.81;83.86;98414.75;2861137;82;21149;-69
2021/01/25 00:28:24;;;;;;;12.25;8.18;;;;;;;3.72;84.21;98419.45;2861364;82;21129;-67
2021/01/25 00:32:27;;;;;;;15.65;10.10;;;;;;;3.70;84.54;98428.80;2857046;82;21152;-66
2021/01/25 00:36:30;;;;;;;13.40;10.25;;;;;;;3.74;84.80;98430.70;2873270;82;21155;-67
2021/01/25 00:40:33;;;;;;;9.80;8.28;;;;;;;3.75;84.72;98434.16;2878635;82;21129;-65
2021/01/25 00:44:36;;;;;;;11.73;9.33;;;;;;;3.74;84.65;98429.39;2879835;82;21113;-66
2021/01/25 00:48:39;;;;;;;11.40;7.70;;;;;;;3.72;84.68;98440.49;2877870;82;21141;-66
2021/01/25 00:52:42;;;;;;;10.23;6.75;;;;;;;3.71;84.65;98441.45;2877575;81;21146;-63
2021/01/25 00:56:50;;;;;;;7.00;6.30;;;;;;;3.73;84.67;98453.99;2879606;82;21141;-67
2021/01/25 01:00:52;;;;;;;9.63;6.25;;;;;;;3.69;84.65;98461.79;2879707;82;21141;-66
2021/01/25 01:04:55;;;;;;;6.25;4.97;;;;;;;3.66;84.76;98464.67;2879973;82;21140;-64
2021/01/25 01:08:58;;;;;;;8.10;7.25;;;;;;;3.64;84.78;98474.49;2879662;82;21105;-67
2021/01/25 01:13:03;;;;;;;13.32;7.70;;;;;;;3.60;84.98;98483.59;2879956;82;21148;-63
2021/01/25 01:17:10;;;;;;;15.03;9.23;;;;;;;3.61;85.07;98483.95;2879717;82;21129;-66
2021/01/25 01:21:14;;;;;;;11.12;7.78;;;;;;;3.60;85.06;98480.97;2879660;82;21587;-63
2021/01/25 01:25:17;;;;;;;10.95;9.00;;;;;;;3.64;84.86;98470.55;2861366;83;21144;-65
2021/01/25 01:29:20;;;;;;;18.02;12.45;;;;;;;3.57;85.14;98478.95;2828535;83;21145;-65
2021/01/25 01:33:23;;;;;;;27.17;15.15;;;;;;;3.59;85.25;98481.44;2839158;82;21171;-65
2021/01/25 01:37:26;;;;;;;15.28;9.35;;;;;;;3.65;85.32;98486.67;2941812;80;21160;-63
2021/01/25 01:41:40;;;;;;;29.37;16.80;;;;;;;3.71;85.14;98491.42;2942125;80;21148;-62
2021/01/25 01:45:43;;;;;;;23.45;12.10;;;;;;;3.78;84.85;98497.02;2941911;80;21129;-65
2021/01/25 01:49:46;;;;;;;13.95;9.05;;;;;;;3.80;84.59;98499.03;2944938;80;21128;-64
2021/01/25 01:53:49;;;;;;;9.68;8.78;;;;;;;3.82;84.43;98494.48;2946613;80;21133;-65
2021/01/25 01:57:53;;;;;;;14.90;10.03;;;;;;;3.83;84.44;98497.00;2946393;80;21116;-64
2021/01/25 02:01:56;;;;;;;13.43;8.78;;;;;;;3.81;84.27;98499.39;2946449;80;21092;-64
2021/01/25 02:06:01;;;;;;;10.95;8.85;;;;;;;3.74;84.46;98506.98;2946749;80;21136;-63
2021/01/25 02:10:06;;;;;;;20.57;12.37;;;;;;;3.67;84.64;98511.05;2946538;80;21152;-63
2021/01/25 02:14:09;;;;;;;10.75;9.58;;;;;;;3.69;84.64;98505.18;2946520;80;21578;-65
2021/01/25 02:18:14;;;;;;;10.63;8.58;;;;;;;3.71;84.55;98507.20;2946220;80;21676;-64
2021/01/25 02:22:38;;;;;;;14.10;8.63;;;;;;;3.68;84.65;98512.72;2946591;80;21161;-65
2021/01/25 02:27:05;;;;;;;9.55;8.25;;;;;;;3.62;84.37;98508.79;2946674;80;21171;-64
2021/01/25 02:31:10;;;;;;;13.43;10.15;;;;;;;3.59;84.57;98510.85;2945916;80;21161;-64
2021/01/25 02:35:16;;;;;;;12.43;10.20;;;;;;;3.59;84.60;98513.48;2895175;81;21147;-64
2021/01/25 02:39:20;;;;;;;11.50;9.13;;;;;;;3.61;84.45;98511.56;2869499;82;21172;-65
2021/01/25 02:43:24;;;;;;;14.70;10.00;;;;;;;3.57;84.05;98509.19;2869503;83;21153;-64
2021/01/25 02:47:28;;;;;;;13.32;9.30;;;;;;;3.53;83.92;98508.23;2869530;83;21141;-64
2021/01/25 02:51:31;;;;;;;11.38;8.73;;;;;;;3.48;84.15;98513.04;2869496;82;21156;-64
2021/01/25 02:55:34;;;;;;;16.32;11.05;;;;;;;3.47;84.37;98508.25;2869554;83;21143;-63
2021/01/25 02:59:39;;;;;;;12.82;8.85;;;;;;;3.47;84.40;98514.00;2865739;83;22311;-65
2021/01/25 03:03:44;;;;;;;10.32;8.33;;;;;;;3.48;84.47;98518.30;2876682;82;21141;-64
2021/01/25 03:07:50;;;;;;;15.45;10.32;;;;;;;3.49;84.32;98522.10;2869584;82;21113;-63
2021/01/25 03:11:56;;;;;;;16.02;9.00;;;;;;;3.52;84.27;98521.84;2869317;83;21149;-65
2021/01/25 03:15:59;;;;;;;13.78;9.68;;;;;;;3.56;83.97;98528.55;2869411;82;21169;-64
2021/01/25 03:20:04;;;;;;;11.78;8.23;;;;;;;3.58;84.00;98525.78;2891305;80;21126;-63
2021/01/25 03:24:10;;;;;;;8.40;7.22;;;;;;;3.58;83.81;98523.15;2939179;80;21145;-63
2021/01/25 03:28:13;;;;;;;11.48;8.40;;;;;;;3.54;83.86;98525.21;2936819;81;21126;-65
2021/01/25 03:32:16;;;;;;;9.75;7.25;;;;;;;3.56;84.08;98524.61;2927412;81;21613;-62
2021/01/25 03:36:19;;;;;;;10.32;7.95;;;;;;;3.57;84.04;98530.22;2902832;82;21103;-64
2021/01/25 03:40:22;;;;;;;10.23;7.80;;;;;;;3.66;84.32;98531.73;2902956;82;21127;-63
2021/01/25 03:44:25;;;;;;;13.13;7.70;;;;;;;3.66;83.79;98540.94;2903490;81;22212;-63
2021/01/25 03:48:27;;;;;;;10.60;8.83;;;;;;;3.65;83.88;98544.06;2989985;79;21134;-64
2021/01/25 03:52:30;;;;;;;11.15;8.58;;;;;;;3.68;83.90;98550.84;2992616;79;21581;-65
2021/01/25 03:56:33;;;;;;;13.53;8.75;;;;;;;3.67;83.93;98555.29;2994575;78;21141;-66
2021/01/25 04:00:36;;;;;;;9.85;7.00;;;;;;;3.71;83.90;98558.48;2994241;78;21125;-63
2021/01/25 04:04:42;;;;;;;11.35;8.10;;;;;;;3.71;83.67;98562.43;2994111;79;21106;-62
2021/01/25 04:08:44;;;;;;;13.95;7.87;;;;;;;3.71;83.64;98559.80;2994580;78;21119;-64
2021/01/25 04:12:47;;;;;;;9.60;7.03;;;;;;;3.76;83.95;98562.91;2994172;79;21114;-63
2021/01/25 04:16:50;;;;;;;9.93;6.25;;;;;;;3.85;83.82;98566.59;2994492;78;21106;-65
2021/01/25 04:20:53;;;;;;;9.25;6.75;;;;;;;3.83;83.41;98564.08;2994423;79;21102;-68
2021/01/25 04:24:56;;;;;;;11.78;7.62;;;;;;;3.80;83.42;98569.59;2994163;78;21070;-70
2021/01/25 04:29:00;;;;;;;13.83;7.80;;;;;;;3.80;83.68;98582.73;2994088;79;21118;-66
2021/01/25 04:33:03;;;;;;;15.58;9.98;;;;;;;3.77;83.96;98567.21;3005130;78;21106;-70
2021/01/25 04:37:06;;;;;;;12.25;7.37;;;;;;;3.78;84.01;98577.23;3009500;77;21108;-68
2021/01/25 04:41:11;;;;;;;12.47;9.30;;;;;;;3.78;83.96;98571.52;2913600;81;21172;-71
2021/01/25 04:45:15;;;;;;;12.33;8.93;;;;;;;3.78;83.85;98572.83;2981636;79;21578;-69
2021/01/25 04:49:21;;;;;;;10.13;8.40;;;;;;;3.77;83.76;98580.83;2981277;79;21696;-71
2021/01/25 04:53:24;;;;;;;13.28;10.20;;;;;;;3.73;83.83;98578.91;2913877;80;21163;-68
2021/01/25 04:57:31;;;;;;;11.73;9.30;;;;;;;3.72;83.83;98589.08;2981604;78;21144;-69
2021/01/25 05:01:34;;;;;;;10.38;8.30;;;;;;;3.71;83.92;98586.09;2912758;81;21147;-69
2021/01/25 05:05:38;;;;;;;8.48;6.37;;;;;;;3.70;83.99;98589.69;2981356;79;21097;-69
2021/01/25 05:09:42;;;;;;;13.10;7.25;;;;;;;3.69;83.92;98585.39;2913636;81;21148;-69
2021/01/25 05:13:45;;;;;;;12.50;9.83;;;;;;;3.65;84.12;98591.86;2865723;82;21165;-66
2021/01/25 05:17:50;;;;;;;11.73;8.17;;;;;;;3.67;84.16;98595.20;2865673;83;21636;-66
2021/01/25 05:21:56;;;;;;;10.03;8.30;;;;;;;3.70;84.11;98596.27;2865021;83;28417;-70
2021/01/25 05:26:09;;;;;;;12.10;10.45;;;;;;;3.73;84.15;98597.33;2865034;83;21107;-70
2021/01/25 05:30:14;;;;;;;9.80;6.47;;;;;;;3.71;84.02;98596.16;2865319;82;21487;-70
2021/01/25 05:34:20;;;;;;;8.75;7.85;;;;;;;3.74;83.98;98597.71;2862249;82;21146;-68
2021/01/25 05:38:23;;;;;;;;;;;;;;;3.72;83.91;98606.17;2863471;83;21142;-68
2021/01/25 05:42:33;;;;;;;13.08;9.23;;;;;;;3.71;84.08;98609.77;2860899;83;20185;-70
2021/01/25 05:46:36;;;;;;;9.28;7.37;;;;;;;3.70;84.31;98613.36;2960834;80;21093;-70
2021/01/25 05:50:42;;;;;;;11.48;7.85;;;;;;;3.65;84.42;98610.27;2883911;82;21112;-70
2021/01/25 05:54:45;;;;;;;9.95;7.08;;;;;;;3.61;84.77;98611.48;2865511;83;21162;-70
2021/01/25 05:58:48;;;;;;;14.25;9.83;;;;;;;3.59;84.75;98615.53;2860945;83;21114;-71
2021/01/25 06:02:53;;;;;;;14.15;10.60;;;;;;;3.62;84.86;98611.34;2860870;83;21154;-70
2021/01/25 06:07:07;;;;;;;13.08;10.10;;;;;;;3.68;84.82;98613.96;2860943;82;21161;-70
2021/01/25 06:11:32;;;;;;;18.95;11.30;;;;;;;3.74;84.53;98616.13;2861236;83;21135;-71
2021/01/25 06:15:40;;;;;;;26.80;17.45;;;;;;;3.74;84.14;98620.53;2860915;82;21110;-70
2021/01/25 06:19:43;;;;;;;33.53;18.55;;;;;;;3.73;83.77;98623.63;2861117;83;21118;-70
2021/01/25 06:23:46;;;;;;;31.33;20.37;;;;;;;3.73;83.69;98631.52;2861124;83;21146;-71
2021/01/25 06:27:55;;;;;;;35.50;19.20;;;;;;;3.77;83.85;98627.70;2861432;83;21110;-71
2021/01/25 06:32:00;;;;;;;29.52;18.48;;;;;;;3.75;83.33;98639.30;2861151;83;21142;-71
2021/01/25 06:36:08;;;;;;;19.97;13.40;;;;;;;3.73;83.49;98642.03;2813175;84;21140;-71
2021/01/25 06:40:13;;;;;;;15.30;11.38;;;;;;;3.70;83.31;98652.80;2812932;84;21149;-70
2021/01/25 06:44:16;;;;;;;13.68;8.35;;;;;;;3.70;83.21;98663.33;2813164;83;21137;-70
2021/01/25 06:48:20;;;;;;;14.90;5.03;;;;;;;3.76;83.22;98663.33;2838179;83;21114;-70
2021/01/25 06:52:29;;;;;;;8.68;6.95;;;;;;;3.75;82.76;98671.70;2916307;81;21610;-70
2021/01/25 06:56:53;;;;;;;11.43;8.38;;;;;;;3.75;82.84;98674.34;2916376;80;21147;-70
2021/01/25 07:00:59;;;;;;;12.75;7.17;;;;;;;3.75;82.60;98679.59;2916236;80;21128;-71
2021/01/25 07:05:08;;;;;;;7.07;4.77;;;;;;;3.82;82.83;98690.44;2915861;81;21158;-71
2021/01/25 07:09:11;;;;;;;24.87;15.95;;;;;;;3.89;82.58;98686.84;2916432;81;21146;-71
2021/01/25 07:13:14;;;;;;;19.40;10.28;;;;;;;3.90;82.48;98695.09;2916225;81;21136;-70
2021/01/25 07:17:20;;;;;;;9.33;5.42;;;;;;;3.88;82.54;98702.28;2915838;81;21143;-70
2021/01/25 07:21:23;;;;;;;21.23;13.10;;;;;;;3.86;82.56;98709.81;2916330;80;21604;-71
2021/01/25 07:25:28;;;;;;;10.32;6.62;;;;;;;3.85;82.31;98712.59;2916461;80;21140;-70
2021/01/25 07:29:32;;;;;;;11.63;7.70;;;;;;;3.83;82.29;98717.95;2916419;81;21140;-71
2021/01/25 07:33:37;;;;;;;39.70;20.45;;;;;;;3.84;82.33;98722.25;2936391;79;21133;-70
2021/01/25 07:37:40;;;;;;;14.33;8.65;;;;;;;3.80;82.28;98722.14;2981452;79;21062;-70
2021/01/25 07:41:46;;;;;;;5.08;4.58;;;;;;;3.80;82.46;98727.87;2981450;79;21133;-70
2021/01/25 07:45:51;;;;;;;5.10;4.22;;;;;;;3.81;82.29;98726.45;3017510;77;21113;-71
2021/01/25 07:49:53;;;;;;;6.75;5.67;;;;;;;3.82;82.52;98729.44;3072807;77;21532;-70
2021/01/25 07:53:57;;;;;;;8.63;5.90;;;;;;;3.83;82.36;98733.73;3072662;77;21128;-69
2021/01/25 07:58:10;;;;;;;9.48;6.10;;;;;;;3.82;81.96;98739.11;3072640;77;21132;-70
2021/01/25 08:02:15;;;;;;;7.35;5.47;;;;;;;3.87;82.24;98733.02;3072575;77;21081;-70
2021/01/25 08:06:19;;;;;;;9.68;5.83;;;;;;;3.91;81.75;98738.86;3073102;77;21137;-70
2021/01/25 08:10:22;;;;;;;8.70;6.62;;;;;;;3.89;82.00;98740.78;3072847;77;21594;-70
2021/01/25 08:14:45;;;;;;;12.58;8.65;;;;;;;3.91;82.27;98744.13;3072775;77;21120;-70
2021/01/25 08:18:56;;;;;;;11.43;6.92;;;;;;;3.94;82.13;98745.22;3072828;77;21074;-69
2021/01/25 08:23:16;;;;;;;7.97;5.92;;;;;;;3.98;82.10;98743.52;3073260;77;21124;-70
2021/01/25 08:27:20;;;;;;;10.90;8.30;;;;;;;4.02;82.08;98753.33;3072631;77;21416;-71
2021/01/25 08:31:34;;;;;;;18.45;12.13;;;;;;;4.11;82.12;98759.16;3072664;77;21128;-70
2021/01/25 08:35:42;;;;;;;21.20;14.78;;;;;;;4.15;81.72;98761.08;2992198;79;21169;-69
2021/01/25 08:39:47;;;;;;;15.35;10.98;;;;;;;4.16;81.72;98753.55;2981464;79;21509;-70
2021/01/25 08:43:57;;;;;;;16.07;12.47;;;;;;;4.24;81.91;98760.36;2983998;79;21130;-71
2021/01/25 08:48:10;;;;;;;14.15;10.55;;;;;;;4.31;81.22;98762.00;3069725;76;23058;-68
2021/01/25 08:52:39;;;;;;;8.38;6.53;;;;;;;4.33;80.84;98758.79;3023044;78;21149;-68
2021/01/25 08:56:41;;;;;;;12.53;9.48;;;;;;;4.37;80.39;98758.04;3023002;78;21158;-69
2021/01/25 09:00:48;;;;;;;15.75;10.18;;;;;;;4.39;80.21;98754.80;3023253;78;21153;-69
2021/01/25 09:04:52;;;;;;;12.98;7.22;;;;;;;4.47;80.56;98756.82;3023144;78;21146;-69
2021/01/25 09:08:55;;;;;;;21.87;11.30;;;;;;;4.49;79.87;98761.48;3022983;78;21557;-69
2021/01/25 09:12:57;;;;;;;15.45;12.10;;;;;;;4.50;79.82;98765.78;3023054;78;21585;-67
2021/01/25 09:17:01;;;;;;;21.27;9.28;;;;;;;4.55;79.59;98768.41;3074342;76;21061;-68
2021/01/25 09:21:04;;;;;;;22.98;13.50;;;;;;;4.59;79.66;98776.91;3097483;76;21129;-70
2021/01/25 09:25:12;;;;;;;18.92;11.95;;;;;;;4.60;79.62;98781.20;3097610;76;21128;-69
2021/01/25 09:29:18;;;;;;;31.73;20.90;;;;;;;4.54;79.69;98783.85;3097477;76;21120;-68
2021/01/25 09:33:20;;;;;;;23.73;14.70;;;;;;;4.54;79.90;98800.15;3097473;76;21132;-68
2021/01/25 09:37:24;;;;;;;21.52;12.63;;;;;;;4.48;80.07;98800.16;3097738;76;21113;-67
2021/01/25 09:41:27;;;;;;;16.20;9.70;;;;;;;4.38;79.77;98800.06;3097353;76;21113;-70
2021/01/25 09:45:30;;;;;;;19.75;11.83;;;;;;;4.33;79.55;98794.33;3097557;76;21133;-67
2021/01/25 09:49:33;;;;;;;33.78;21.00;;;;;;;4.33;80.31;98804.01;3097447;76;21097;-69
2021/01/25 09:53:39;;;;;;;100.33;60.28;;;;;;;4.32;79.26;98800.53;3097542;76;21160;-70
2021/01/25 09:57:42;;;;;;;53.90;30.95;;;;;;;4.30;78.79;98799.81;3096905;76;21089;-69
2021/01/25 10:01:47;;;;;;;41.63;23.77;;;;;;;4.28;78.85;98796.47;3096551;76;21144;-68
2021/01/25 10:05:51;;;;;;;39.27;21.07;;;;;;;4.32;78.96;98803.16;3096424;76;21128;-69
2021/01/25 10:09:54;;;;;;;43.63;25.65;;;;;;;4.38;79.00;98794.80;3096735;76;21096;-67
2021/01/25 10:13:57;;;;;;;16.52;9.98;;;;;;;4.50;78.98;98789.48;3096324;76;21121;-69
2021/01/25 10:18:02;;;;;;;31.57;19.12;;;;;;;4.60;78.26;98800.96;3096214;76;21155;-69
2021/01/25 10:22:05;;;;;;;22.87;12.80;;;;;;;4.66;79.02;98802.27;3097220;76;21111;-67
2021/01/25 10:26:10;;;;;;;17.73;9.33;;;;;;;4.62;78.67;98804.77;3096405;76;21116;-68
2021/01/25 10:30:15;;;;;;;16.87;9.70;;;;;;;4.47;78.64;98810.80;3096483;76;21116;-69
2021/01/25 10:34:18;;;;;;;14.23;10.13;;;;;;;4.41;80.12;98823.97;3096935;76;21129;-67
2021/01/25 10:38:21;;;;;;;13.55;9.78;;;;;;;4.38;80.93;98820.27;3096346;76;21160;-68
2021/01/25 10:42:24;;;;;;;14.13;8.58;;;;;;;4.41;81.12;98821.34;3096233;76;21156;-68
2021/01/25 10:46:26;;;;;;;15.43;8.33;;;;;;;4.36;81.47;98819.09;3084250;76;21134;-67
2021/01/25 10:50:29;;;;;;;15.55;10.63;;;;;;;4.27;81.93;98816.70;3068877;77;21129;-68
2021/01/25 10:54:32;;;;;;;19.55;14.28;;;;;;;4.31;82.31;98826.98;3068947;77;21419;-67
2021/01/25 10:58:37;;;;;;;20.35;12.65;;;;;;;4.32;81.92;98816.81;3069026;77;21498;-68
2021/01/25 11:02:44;;;;;;;13.03;9.55;;;;;;;4.29;81.72;98823.16;3069084;77;21129;-68
2021/01/25 11:06:49;;;;;;;22.55;13.72;;;;;;;4.31;81.79;98824.36;3069090;77;21101;-67
2021/01/25 11:10:52;;;;;;;25.48;13.78;;;;;;;4.22;81.36;98825.42;3068822;77;21121;-68
2021/01/25 11:14:55;;;;;;;18.02;9.43;;;;;;;4.26;81.51;98824.72;3068988;77;21089;-68
2021/01/25 11:18:58;;;;;;;26.30;13.45;;;;;;;4.29;81.36;98829.73;3069006;77;21089;-67
2021/01/25 11:23:01;;;;;;;20.55;13.28;;;;;;;4.35;81.54;98824.00;3069014;77;21121;-68
2021/01/25 11:27:05;;;;;;;25.95;13.08;;;;;;;4.45;81.30;98832.47;3069050;77;21144;-66
2021/01/25 11:31:08;;;;;;;17.77;11.25;;;;;;;4.56;80.40;98835.09;3068921;77;21140;-69
2021/01/25 11:35:12;;;;;;;27.70;17.40;;;;;;;4.63;78.73;98834.95;3068900;77;21121;-68
2021/01/25 11:39:15;;;;;;;21.80;12.00;;;;;;;4.74;78.94;98826.67;3068861;77;21105;-68
2021/01/25 11:43:18;;;;;;;24.15;13.78;;;;;;;4.75;77.84;98833.61;3069148;77;21165;-67
2021/01/25 11:47:21;;;;;;;8.83;6.05;;;;;;;4.75;77.10;98832.30;3053937;77;21539;-67
2021/01/25 11:51:24;;;;;;;14.43;8.45;;;;;;;4.55;76.01;98832.11;3044078;78;21156;-68
2021/01/25 11:55:28;;;;;;;12.18;7.30;;;;;;;4.49;76.48;98845.73;3044125;78;21077;-68
2021/01/25 11:59:31;;;;;;;22.93;14.83;;;;;;;4.28;75.25;98833.33;3043995;78;21602;-67
2021/01/25 12:03:34;;;;;;;30.57;17.23;;;;;;;4.43;76.03;98836.06;3043973;78;21120;-68
2021/01/25 12:07:38;;;;;;;80.35;42.17;;;;;;;4.38;76.10;98838.70;3043732;78;21136;-69
2021/01/25 12:11:41;;;;;;;50.17;25.88;;;;;;;4.51;77.38;98838.09;3044199;78;21136;-68
2021/01/25 12:15:44;;;;;;;69.85;30.77;;;;;;;4.62;75.39;98837.23;3043868;78;21136;-68
2021/01/25 12:19:47;;;;;;;56.42;30.37;;;;;;;4.57;74.34;98844.17;3043920;78;21152;-67
2021/01/25 12:23:51;;;;;;;43.92;23.87;;;;;;;4.63;75.03;98845.48;3043907;78;21105;-68
2021/01/25 12:27:54;;;;;;;37.55;19.15;;;;;;;4.64;74.85;98836.63;3044018;78;21072;-67
2021/01/25 12:31:57;;;;;;;34.30;16.67;;;;;;;4.57;74.13;98850.75;3043719;78;21081;-68
2021/01/25 12:36:02;;;;;;;33.35;15.93;;;;;;;4.58;74.46;98851.61;3043828;78;21096;-67
2021/01/25 12:40:07;;;;;;;24.20;11.65;;;;;;;4.59;72.33;98854.59;3043816;78;21132;-67
2021/01/25 12:44:11;;;;;;;23.85;12.58;;;;;;;4.62;72.17;98861.39;3043880;78;21137;-67
2021/01/25 12:48:14;;;;;;;22.82;10.55;;;;;;;4.65;72.08;98853.27;3066644;76;21150;-66
2021/01/25 12:52:17;;;;;;;29.02;15.95;;;;;;;4.57;70.72;98854.70;3031398;77;21579;-69
2021/01/25 12:56:21;;;;;;;15.15;11.03;;;;;;;4.56;70.42;98865.38;3031633;78;21145;-68
2021/01/25 13:00:27;;;;;;;12.68;10.50;;;;;;;4.68;72.46;98865.70;3031318;78;21148;-67
2021/01/25 13:04:30;;;;;;;;;;;;;;;4.76;72.42;98867.72;3034034;78;21128;-69
2021/01/25 13:08:32;;;;;;;15.85;11.43;;;;;;;4.81;70.70;98864.72;3031212;77;20119;-66
2021/01/25 13:12:38;;;;;;;11.78;7.42;;;;;;;4.85;71.54;98864.83;3031209;78;21135;-67
2021/01/25 13:16:41;;;;;;;10.18;8.08;;;;;;;4.94;70.95;98872.00;3031404;78;21156;-67
2021/01/25 13:20:44;;;;;;;10.43;7.72;;;;;;;4.96;69.66;98877.98;3031308;78;21133;-67
2021/01/25 13:24:48;;;;;;;10.68;5.95;;;;;;;4.89;69.88;98887.82;3031098;78;21105;-67
2021/01/25 13:28:50;;;;;;;17.07;9.18;;;;;;;4.83;68.90;98886.05;3031242;77;21133;-68
2021/01/25 13:32:56;;;;;;;10.43;5.83;;;;;;;4.79;68.32;98890.36;3031562;77;21094;-67
2021/01/25 13:36:59;;;;;;;8.38;4.65;;;;;;;4.79;68.43;98896.95;3031401;77;21125;-68
2021/01/25 13:41:02;;;;;;;5.30;3.40;;;;;;;4.79;68.04;98898.27;3038330;76;21089;-68
2021/01/25 13:45:09;;;;;;;6.60;4.90;;;;;;;4.74;66.91;98902.58;3090413;76;21132;-59
2021/01/25 13:49:14;;;;;;;7.40;4.70;;;;;;;4.66;68.52;98912.40;2959094;80;21105;-59
2021/01/25 13:53:17;;;;;;;8.13;4.60;;;;;;;4.65;67.80;98912.54;3016334;79;21117;-60
2021/01/25 13:57:20;;;;;;;5.95;4.62;;;;;;;4.50;68.40;98910.62;2962918;80;21079;-59
2021/01/25 14:01:23;;;;;;;8.10;5.75;;;;;;;4.38;67.54;98911.10;3015994;79;21098;-59
2021/01/25 14:06:00;;;;;;;8.18;5.60;;;;;;;4.39;68.13;98921.98;2962921;80;21110;-59
2021/01/25 14:10:06;;;;;;;6.58;5.03;;;;;;;4.35;68.51;98929.77;2962863;80;21134;-59
2021/01/25 14:14:43;;;;;;;;;;;;;;;4.32;68.97;98937.92;3019322;79;21093;-60
2021/01/25 14:18:46;;;;;;;7.35;3.90;;;;;;;4.38;69.36;98934.80;2953066;80;20171;-60
2021/01/25 14:22:50;;;;;;;7.97;4.62;;;;;;;4.48;69.64;98937.55;2952695;80;21105;-59
2021/01/25 14:27:26;;;;;;;5.90;4.05;;;;;;;4.54;69.53;98941.86;2962921;80;21145;-59
2021/01/25 14:31:29;;;;;;;8.55;4.78;;;;;;;4.57;69.17;98948.20;2960010;80;21109;-60
2021/01/25 14:36:06;;;;;;;9.95;4.35;;;;;;;4.65;69.61;98952.05;2962978;80;21092;-59
2021/01/25 14:40:14;;;;;;;8.98;4.67;;;;;;;4.68;70.02;98953.12;3016232;79;21547;-59
2021/01/25 14:44:47;;;;;;;4.72;3.33;;;;;;;4.63;68.77;98953.48;2962808;80;21110;-61
2021/01/25 14:48:50;;;;;;;7.85;4.55;;;;;;;4.57;69.37;98963.19;2962091;80;21162;-60
2021/01/25 14:52:54;;;;;;;8.20;4.55;;;;;;;4.49;69.52;98972.14;2993094;78;21141;-58
2021/01/25 14:56:57;;;;;;;6.55;5.03;;;;;;;4.42;70.30;98977.89;2934354;79;21151;-57
2021/01/25 15:01:00;;;;;;;5.30;3.15;;;;;;;4.31;70.27;98977.88;2907216;81;21201;-58
2021/01/25 15:05:04;;;;;;;8.85;5.15;;;;;;;4.23;70.73;98985.53;2958811;80;21205;-60
2021/01/25 15:09:07;;;;;;;7.85;5.47;;;;;;;4.10;70.55;98991.72;2907172;81;22162;-59
2021/01/25 15:13:12;;;;;;;7.00;5.22;;;;;;;4.05;70.98;98994.36;2894801;81;21124;-59
2021/01/25 15:17:17;;;;;;;4.47;3.52;;;;;;;4.02;71.85;98994.56;2977863;79;21123;-58
2021/01/25 15:21:20;;;;;;;7.78;5.47;;;;;;;4.04;71.57;99004.52;2965463;79;21163;-60
2021/01/25 15:25:24;;;;;;;10.98;6.37;;;;;;;4.00;71.27;99011.31;2963254;79;21125;-59
2021/01/25 15:29:27;;;;;;;6.30;5.65;;;;;;;3.94;71.26;99016.22;2961127;80;21176;-58
2021/01/25 15:33:30;;;;;;;9.80;7.62;;;;;;;3.89;71.08;99014.38;2948821;80;21145;-58
2021/01/25 15:37:33;;;;;;;107.83;50.10;;;;;;;3.78;71.05;99021.76;2948376;80;21153;-59
2021/01/25 15:41:42;;;;;;;13.55;8.40;;;;;;;3.72;71.22;99029.62;2985232;78;21117;-58
2021/01/25 15:45:52;;;;;;;12.35;8.45;;;;;;;3.75;71.62;99037.77;2926728;79;21141;-59
2021/01/25 15:49:54;;;;;;;15.95;9.88;;;;;;;3.77;71.82;99048.55;2995217;79;21126;-59
2021/01/25 15:53:58;;;;;;;10.93;6.83;;;;;;;3.68;72.24;99050.53;2960748;80;22247;-60
2021/01/25 15:58:08;;;;;;;10.08;4.85;;;;;;;3.68;72.76;99055.33;2953336;79;21117;-61
2021/01/25 16:02:10;;;;;;;13.43;6.42;;;;;;;3.67;73.17;99058.05;2983350;79;21607;-62
2021/01/25 16:06:18;;;;;;;9.45;6.10;;;;;;;3.66;73.54;99066.90;3017183;78;21156;-61
2021/01/25 16:10:21;;;;;;;10.53;8.30;;;;;;;3.60;74.18;99071.30;2967792;79;21158;-62
2021/01/25 16:14:24;;;;;;;9.58;7.97;;;;;;;3.60;74.87;99074.75;2984917;79;21138;-63
2021/01/25 16:18:27;;;;;;;9.58;6.45;;;;;;;3.73;75.20;99076.01;2988019;78;21631;-62
2021/01/25 16:22:31;;;;;;;7.70;4.97;;;;;;;3.85;75.05;99090.91;3000099;78;21164;-60
2021/01/25 16:26:34;;;;;;;9.18;8.00;;;;;;;3.95;75.03;99092.88;2983306;79;21113;-61
2021/01/25 16:30:37;;;;;;;18.65;10.75;;;;;;;4.00;74.98;99094.69;2980665;79;21147;-61
2021/01/25 16:34:41;;;;;;;28.00;15.58;;;;;;;3.99;74.88;99097.78;3024225;78;21168;-61
2021/01/25 16:38:44;;;;;;;28.17;17.60;;;;;;;4.07;75.02;99099.03;2983231;79;21107;-61
2021/01/25 16:42:47;;;;;;;27.30;17.62;;;;;;;4.16;74.33;99105.41;2936336;79;21128;-60
2021/01/25 16:46:50;;;;;;;31.35;19.92;;;;;;;4.18;74.13;99108.77;2962093;79;21135;-60
2021/01/25 16:50:55;;;;;;;31.15;20.90;;;;;;;4.16;73.84;99111.49;2980994;78;21113;-61
2021/01/25 16:54:58;;;;;;;46.28;29.70;;;;;;;4.18;73.66;99115.34;2972461;79;21606;-59
2021/01/25 16:59:00;;;;;;;46.68;27.15;;;;;;;4.17;73.74;99128.14;2960223;79;21126;-60
2021/01/25 17:03:05;;;;;;;26.37;17.60;;;;;;;4.17;73.79;99120.25;2975826;79;21145;-60
2021/01/25 17:07:09;;;;;;;27.20;14.93;;;;;;;4.07;74.30;99128.80;3012508;78;21145;-60
2021/01/25 17:11:12;;;;;;;32.67;17.55;;;;;;;3.91;75.79;99125.61;2964580;79;21130;-61
2021/01/25 17:15:18;;;;;;;25.05;17.37;;;;;;;3.83;76.91;99129.64;2956551;80;21157;-59
2021/01/25 17:19:21;;;;;;;19.27;13.78;;;;;;;3.81;77.97;99137.27;2933452;80;21602;-61
2021/01/25 17:23:28;;;;;;;20.52;16.52;;;;;;;3.81;78.36;99135.50;2976403;80;21113;-62
2021/01/25 17:27:31;;;;;;;27.42;15.38;;;;;;;3.80;78.80;99132.50;3030196;78;21101;-61
2021/01/25 17:31:33;;;;;;;26.62;17.50;;;;;;;3.88;78.81;99134.58;2976398;80;21152;-61
2021/01/25 17:35:37;;;;;;;22.00;17.48;;;;;;;3.98;78.38;99137.39;2975940;80;21159;-60
2021/01/25 17:39:43;;;;;;;29.15;18.98;;;;;;;4.01;77.80;99138.47;2976131;80;21137;-61
2021/01/25 17:43:48;;;;;;;20.20;13.90;;;;;;;4.04;77.40;99145.31;3030068;78;21516;-61
2021/01/25 17:47:52;;;;;;;24.07;16.60;;;;;;;4.05;77.47;99146.50;2969583;78;21145;-61
2021/01/25 17:51:57;;;;;;;22.40;16.00;;;;;;;4.07;77.61;99144.59;2952480;79;21154;-61
2021/01/25 17:56:01;;;;;;;23.38;15.60;;;;;;;4.10;77.68;99152.26;2947441;80;21097;-62
2021/01/25 18:00:08;;;;;;;30.17;20.52;;;;;;;4.11;77.31;99147.36;2941224;80;21575;-63
2021/01/25 18:04:12;;;;;;;36.65;21.70;;;;;;;4.07;76.92;99149.03;2957090;80;21161;-61
2021/01/25 18:08:16;;;;;;;26.87;18.50;;;;;;;3.99;76.90;99156.17;2938343;80;21146;-61
2021/01/25 18:12:21;;;;;;;26.10;19.35;;;;;;;4.03;77.44;99165.52;2935876;80;21134;-60
2021/01/25 18:16:24;;;;;;;43.15;25.95;;;;;;;4.09;77.55;99162.92;2934775;81;21592;-61
2021/01/25 18:20:28;;;;;;;34.75;24.57;;;;;;;4.13;77.42;99164.36;2935398;81;21153;-62
2021/01/25 18:24:31;;;;;;;35.48;23.12;;;;;;;4.11;77.35;99164.47;2935582;81;21157;-62
2021/01/25 18:28:34;;;;;;;33.35;20.95;;;;;;;4.11;77.21;99164.47;2935428;81;21157;-62
2021/01/25 18:32:37;;;;;;;35.28;24.98;;;;;;;4.08;77.28;99168.64;2935321;81;21153;-62
2021/01/25 18:36:41;;;;;;;36.98;21.12;;;;;;;4.11;77.40;99164.47;2935133;81;21211;-61
2021/01/25 18:40:45;;;;;;;32.78;21.48;;;;;;;4.12;77.51;99162.69;2935557;81;21119;-60
2021/01/25 18:44:50;;;;;;;32.60;20.20;;;;;;;4.12;77.58;99171.41;2935635;81;21154;-62
2021/01/25 18:48:55;;;;;;;33.63;20.77;;;;;;;4.13;77.67;99179.70;2944893;80;21127;-60
2021/01/25 18:52:58;;;;;;;33.18;21.02;;;;;;;4.12;77.85;99176.67;2957448;80;21130;-60
2021/01/25 18:57:02;;;;;;;47.40;21.05;;;;;;;4.13;77.85;99173.12;2957434;80;21133;-62
2021/01/25 19:01:05;;;;;;;23.55;19.35;;;;;;;4.16;77.87;99174.66;2949718;80;21120;-60
2021/01/25 19:05:12;;;;;;;35.73;22.10;;;;;;;4.20;77.84;99180.06;2934409;80;21534;-61
2021/01/25 19:09:14;;;;;;;32.42;20.70;;;;;;;4.20;77.82;99177.92;2934013;80;21602;-61